Time;durP1;ratioP1;P1;durP2;ratioP2;P2;SDS_P1;SDS_P2;PMS_P1;PMS_P2;Temp;Humidity;BMP_temperature;BMP_pressure;BME280_temperature;BME280_humidity;BME280_pressure;Samples;Min_cycle;Max_cycle;Signal;HPM_P1;HPM_P2
2022/12/04 00:02:19;;;;;;;61.20;42.27;;;;;;;-0.48;100.00;101641.31;4942896;28;20035;-86
2022/12/04 00:04:44;;;;;;;64.53;43.70;;;;;;;-0.48;100.00;101641.31;4942946;28;20571;-88
2022/12/04 00:07:10;;;;;;;64.40;43.57;;;;;;;-0.35;100.00;101654.53;4954508;28;20086;-87
2022/12/04 00:09:35;;;;;;;62.23;42.87;;;;;;;-0.49;100.00;101641.44;4953951;28;20054;-86
2022/12/04 00:12:00;;;;;;;64.43;43.57;;;;;;;-0.47;100.00;101628.88;4953576;28;20035;-86
2022/12/04 00:14:26;;;;;;;62.70;42.83;;;;;;;-0.49;100.00;101630.81;4954192;28;20039;-87
2022/12/04 00:16:51;;;;;;;63.87;43.90;;;;;;;-0.39;100.00;101648.59;4936751;28;20514;-85
2022/12/04 00:19:17;;;;;;;65.03;44.37;;;;;;;-0.44;100.00;101633.97;4953432;28;20101;-86
2022/12/04 00:21:44;;;;;;;64.50;44.07;;;;;;;-0.46;100.00;101622.56;4953201;28;20050;-86
2022/12/04 00:24:09;;;;;;;62.07;43.43;;;;;;;-0.51;100.00;101614.97;4953678;28;20808;-85
2022/12/04 00:26:34;;;;;;;61.67;44.23;;;;;;;-0.48;100.00;101613.88;4952923;28;20286;-88
2022/12/04 00:29:00;;;;;;;61.33;43.23;;;;;;;-0.36;100.00;101635.03;4953836;28;20486;-86
2022/12/04 00:31:28;;;;;;;63.73;44.93;;;;;;;-0.49;100.00;101620.16;4953313;28;20026;-87
2022/12/04 00:33:53;;;;;;;60.53;43.13;;;;;;;-0.49;100.00;101622.81;4953512;28;20042;-89
2022/12/04 00:36:22;;;;;;;69.93;51.10;;;;;;;-0.59;100.00;101615.53;4954798;28;20317;-87
2022/12/04 00:38:48;;;;;;;62.87;45.30;;;;;;;-0.43;100.00;101617.84;4952094;28;20039;-86
2022/12/04 00:41:19;;;;;;;70.50;49.00;;;;;;;-0.54;100.00;101607.22;4953430;28;20308;-85
2022/12/04 00:43:45;;;;;;;60.30;43.40;;;;;;;-0.42;100.00;101624.88;4952857;28;20110;-87
2022/12/04 00:46:11;;;;;;;63.80;44.93;;;;;;;-0.45;100.00;101617.16;4932118;28;20303;-87
2022/12/04 00:48:37;;;;;;;65.97;43.93;;;;;;;-0.56;100.00;101599.34;4918100;29;20054;-87
2022/12/04 00:51:12;;;;;;;65.00;45.77;;;;;;;-0.39;100.00;101627.31;4938224;29;20394;-87
2022/12/04 00:53:38;;;;;;;69.73;46.57;;;;;;;-0.48;100.00;101614.72;4917866;29;20042;-85
2022/12/04 00:56:08;;;;;;;62.27;44.57;;;;;;;-0.41;100.00;101618.59;4935463;29;20304;-87
2022/12/04 00:58:34;;;;;;;62.83;44.03;;;;;;;-0.48;100.00;101620.03;4934326;29;20047;-86
2022/12/04 01:01:06;;;;;;;60.67;43.17;;;;;;;-0.51;100.00;101607.81;4933716;29;20298;-86
2022/12/04 01:03:32;;;;;;;61.20;43.00;;;;;;;-0.40;100.00;101625.59;4918980;29;20050;-88
2022/12/04 01:05:58;;;;;;;61.40;44.30;;;;;;;-0.51;100.00;101598.97;4924264;29;20338;-85
2022/12/04 01:08:24;;;;;;;60.63;43.00;;;;;;;-0.48;100.00;101608.53;4933272;29;20299;-86
2022/12/04 01:10:49;;;;;;;59.80;42.70;;;;;;;-0.48;100.00;101611.22;4933517;29;20310;-85
2022/12/04 01:13:14;;;;;;;62.73;43.97;;;;;;;-0.39;100.00;101623.81;4933613;29;20031;-85
2022/12/04 01:15:42;;;;;;;59.80;41.93;;;;;;;-0.29;100.00;101645.22;4932488;29;20061;-85
2022/12/04 01:18:08;;;;;;;62.77;43.97;;;;;;;-0.41;100.00;101631.91;4922334;29;20046;-87
2022/12/04 01:20:34;;;;;;;59.80;43.47;;;;;;;-0.37;100.00;101637.81;4921874;29;20358;-88
2022/12/04 01:22:59;;;;;;;59.43;42.57;;;;;;;-0.46;100.00;101625.22;4933219;29;20294;-86
2022/12/04 01:25:25;;;;;;;60.57;42.97;;;;;;;-0.47;100.00;101620.91;4933525;29;20036;-86
2022/12/04 01:27:50;;;;;;;59.60;43.47;;;;;;;-0.46;100.00;101630.56;4933214;29;20528;-87
2022/12/04 01:30:15;;;;;;;61.43;44.83;;;;;;;-0.47;100.00;101626.22;4932877;29;20045;-87
2022/12/04 01:32:41;;;;;;;58.97;43.37;;;;;;;-0.40;100.00;101638.06;4933064;29;20045;-87
2022/12/04 01:35:07;;;;;;;59.70;43.27;;;;;;;-0.46;100.00;101625.22;4933003;29;20136;-89
2022/12/04 01:37:33;;;;;;;60.03;43.93;;;;;;;-0.43;100.00;101635.66;4932532;29;20494;-87
2022/12/04 01:39:59;;;;;;;59.13;42.90;;;;;;;-0.48;100.00;101628.03;4934005;29;20049;-87
2022/12/04 01:42:24;;;;;;;60.73;43.10;;;;;;;-0.41;100.00;101639.03;4921223;29;20303;-86
2022/12/04 01:45:27;;;;;;;58.23;43.93;;;;;;;-0.32;100.00;101645.47;4924876;29;20400;-86
2022/12/04 01:47:57;;;;;;;61.20;44.37;;;;;;;-0.47;100.00;101623.56;4952623;28;20433;-87
2022/12/04 01:50:23;;;;;;;57.57;42.50;;;;;;;-0.47;100.00;101618.22;4952630;28;20393;-86
2022/12/04 01:52:49;;;;;;;57.67;43.50;;;;;;;-0.46;100.00;101610.13;4953250;28;20930;-86
2022/12/04 01:55:15;;;;;;;60.80;45.03;;;;;;;-0.46;100.00;101610.13;4952882;28;20305;-87
2022/12/04 01:57:41;;;;;;;59.37;43.67;;;;;;;-0.42;100.00;101610.72;4951926;28;20035;-86
2022/12/04 02:00:12;;;;;;;58.70;44.07;;;;;;;-0.49;100.00;101601.53;4951573;28;20039;-86
2022/12/04 02:02:43;;;;;;;62.20;45.00;;;;;;;-0.54;100.00;101594.75;4952272;28;20287;-87
2022/12/04 02:05:12;;;;;;;58.67;43.43;;;;;;;-0.45;100.00;101608.28;4950975;28;20360;-86
2022/12/04 02:07:39;;;;;;;58.37;44.23;;;;;;;-0.31;100.00;101629.38;4950277;28;20290;-87
2022/12/04 02:10:07;;;;;;;62.20;45.20;;;;;;;-0.43;100.00;101619.69;4933702;28;20305;-86
2022/12/04 02:12:57;;;;;;;60.80;45.60;;;;;;;-0.40;100.00;101625.59;4951807;28;20372;-86
2022/12/04 02:15:40;;;;;;;60.13;43.93;;;;;;;-0.40;100.00;101619.44;4951566;28;20291;-86
2022/12/04 02:18:37;;;;;;;61.87;45.57;;;;;;;-0.50;100.00;101598.03;4951327;28;20306;-86
2022/12/04 02:21:31;;;;;;;60.10;44.93;;;;;;;-0.51;100.00;101606.97;4951189;28;20307;-86
2022/12/04 02:24:29;;;;;;;64.25;45.33;;;;;;;-0.27;100.00;101636.16;4951621;28;20734;-88
2022/12/04 02:26:57;;;;;;;62.00;45.40;;;;;;;-0.41;100.00;101613.28;4951616;28;20567;-88
2022/12/04 02:29:53;;;;;;;60.40;44.97;;;;;;;-0.28;100.00;101622.97;4950417;28;20306;-86
2022/12/04 02:32:41;;;;;;;61.00;44.53;;;;;;;-0.41;100.00;101609.75;4951873;28;20791;-86
2022/12/04 02:35:14;;;;;;;64.57;46.63;;;;;;;-0.44;100.00;101613.50;4934157;28;20782;-87
2022/12/04 02:37:46;;;;;;;63.13;46.20;;;;;;;-0.45;100.00;101613.63;4951482;28;20389;-88
2022/12/04 02:40:17;;;;;;;62.37;45.63;;;;;;;-0.30;100.00;101631.06;4950658;28;20314;-87
2022/12/04 02:42:50;;;;;;;64.03;47.07;;;;;;;-0.44;100.00;101602.00;4935655;28;20737;-89
2022/12/04 02:45:22;;;;;;;66.43;48.80;;;;;;;-0.45;100.00;101610.97;4951366;28;20847;-88
2022/12/04 02:47:49;;;;;;;63.37;45.77;;;;;;;-0.48;100.00;101600.56;4934719;28;20294;-89
2022/12/04 02:50:18;;;;;;;63.83;47.70;;;;;;;-0.56;100.00;101594.03;4951113;28;20310;-89
2022/12/04 02:52:49;;;;;;;63.20;47.03;;;;;;;-0.43;100.00;101611.69;4934247;28;20365;-90
2022/12/04 02:55:42;;;;;;;62.47;46.40;;;;;;;-0.42;100.00;101600.06;4951593;28;20290;-88
2022/12/04 02:58:19;;;;;;;63.27;47.47;;;;;;;-0.52;100.00;101581.31;4949334;28;20338;-87
2022/12/04 03:00:47;;;;;;;63.67;46.30;;;;;;;-0.48;100.00;101587.25;4950990;28;20389;-88
2022/12/04 03:03:22;;;;;;;64.27;46.47;;;;;;;-0.42;100.00;101597.41;4950295;28;20297;-87
2022/12/04 03:06:09;;;;;;;61.13;45.97;;;;;;;-0.48;100.00;101582.75;4956575;28;20305;-88
2022/12/04 03:08:43;;;;;;;60.73;46.70;;;;;;;-0.36;100.00;101607.56;4950830;28;20274;-88
2022/12/04 03:11:09;;;;;;;61.13;46.60;;;;;;;-0.49;100.00;101575.75;4947163;28;20294;-85
2022/12/04 03:13:39;;;;;;;62.43;46.20;;;;;;;-0.48;100.00;101582.75;4951287;28;20038;-89
2022/12/04 03:16:19;;;;;;;62.07;46.57;;;;;;;-0.47;100.00;101584.47;4950656;28;20399;-86
2022/12/04 03:18:54;;;;;;;62.07;46.27;;;;;;;-0.52;100.00;101578.66;4950522;28;20298;-86
2022/12/04 03:21:23;;;;;;;62.70;47.27;;;;;;;-0.48;100.00;101581.91;4932357;28;20285;-86
2022/12/04 03:23:55;;;;;;;62.27;46.57;;;;;;;-0.41;100.00;101596.44;4950366;28;20773;-86
2022/12/04 03:26:29;;;;;;;65.23;47.77;;;;;;;-0.30;100.00;101612.44;4951946;28;20289;-87
2022/12/04 03:29:17;;;;;;;63.83;46.15;;;;;;;-0.32;100.00;101606.38;4950842;28;20289;-87
2022/12/04 03:31:53;;;;;;;63.40;46.90;;;;;;;-0.46;100.00;101588.81;4949160;28;20050;-87
2022/12/04 03:34:27;;;;;;;62.00;46.60;;;;;;;-0.53;100.00;101582.25;4939511;28;20317;-87
2022/12/04 03:37:00;;;;;;;61.92;47.15;;;;;;;-0.53;100.00;101569.81;4950367;28;20766;-86
2022/12/04 03:39:34;;;;;;;63.10;47.20;;;;;;;-0.37;100.00;101606.75;4950513;28;20046;-87
2022/12/04 03:42:22;;;;;;;65.65;48.05;;;;;;;-0.30;100.00;101607.09;4930203;28;20290;-87
2022/12/04 03:45:22;;;;;;;64.07;48.33;;;;;;;-0.28;100.00;101605.16;4950298;28;20041;-88
2022/12/04 03:47:57;;;;;;;62.03;45.70;;;;;;;-0.46;100.00;101577.31;4950512;28;20701;-88
2022/12/04 03:50:51;;;;;;;64.67;47.43;;;;;;;-0.46;100.00;101575.50;4950840;28;20349;-88
2022/12/04 03:53:26;;;;;;;64.40;47.23;;;;;;;-0.39;100.00;101599.84;4950442;28;20290;-88
2022/12/04 03:56:13;;;;;;;61.13;46.73;;;;;;;-0.52;100.00;101573.31;4950435;28;20305;-86
2022/12/04 03:58:45;;;;;;;60.77;46.03;;;;;;;-0.40;100.00;101598.13;4947596;28;21219;-86
2022/12/04 04:01:12;;;;;;;62.47;45.70;;;;;;;-0.49;100.00;101580.22;4946647;28;20376;-86
2022/12/04 04:03:44;;;;;;;64.93;47.63;;;;;;;-0.42;100.00;101592.06;4949940;28;20287;-88
2022/12/04 04:06:16;;;;;;;63.70;47.03;;;;;;;-0.52;100.00;101570.66;4950377;28;20321;-88
2022/12/04 04:08:47;;;;;;;61.77;47.63;;;;;;;-0.61;100.00;101558.94;4947752;28;20804;-86
2022/12/04 04:11:19;;;;;;;66.33;48.13;;;;;;;-0.56;100.00;101566.53;4949990;28;20305;-87
2022/12/04 04:25:23;;;;;;;63.90;47.30;;;;;;;-0.60;100.00;101565.09;4953820;28;20333;-86
2022/12/04 04:27:52;;;;;;;65.33;47.90;;;;;;;-0.49;100.00;101577.56;4953385;28;20373;-87
2022/12/04 04:30:18;;;;;;;64.47;47.07;;;;;;;-0.44;100.00;101584.22;4953139;28;20290;-87
2022/12/04 04:32:54;;;;;;;65.37;47.93;;;;;;;-0.34;100.00;101597.63;4953388;28;20292;-87
2022/12/04 04:35:46;;;;;;;61.77;47.23;;;;;;;-0.46;100.00;101583.50;4948903;28;20121;-88
2022/12/04 04:38:11;;;;;;;62.33;45.93;;;;;;;-0.31;100.00;101602.75;4946443;28;20321;-85
2022/12/04 04:40:53;;;;;;;63.67;47.73;;;;;;;-0.48;100.00;101577.44;4953311;28;20302;-88
2022/12/04 04:43:32;;;;;;;62.03;46.07;;;;;;;-0.39;100.00;101595.34;4950768;28;20142;-89
2022/12/04 04:46:01;;;;;;;62.50;46.87;;;;;;;-0.42;100.00;101589.41;4934385;28;20306;-86
2022/12/04 04:48:31;;;;;;;62.20;45.93;;;;;;;-0.53;100.00;101572.47;4952956;28;20308;-85
2022/12/04 04:50:59;;;;;;;65.67;48.57;;;;;;;-0.41;100.00;101586.66;4953588;28;20297;-88
2022/12/04 04:53:31;;;;;;;60.47;46.87;;;;;;;-0.48;100.00;101580.09;4953397;28;20301;-89
2022/12/04 04:55:58;;;;;;;62.40;46.10;;;;;;;-0.44;100.00;101583.38;4950549;28;20298;-88
2022/12/04 04:58:23;;;;;;;62.60;46.50;;;;;;;-0.41;100.00;101591.97;4952960;28;20654;-87
2022/12/04 05:01:06;;;;;;;63.47;47.33;;;;;;;-0.29;100.00;101603.44;4953376;28;20295;-86
2022/12/04 05:03:32;;;;;;;64.60;46.83;;;;;;;-0.35;100.00;101585.31;4939011;28;20118;-88
2022/12/04 05:05:58;;;;;;;62.63;45.70;;;;;;;-0.50;100.00;101571.41;4940501;28;20309;-86
2022/12/04 05:08:23;;;;;;;63.43;46.80;;;;;;;-0.35;100.00;101586.16;4953140;28;20067;-87
2022/12/04 05:10:49;;;;;;;66.40;48.27;;;;;;;-0.36;100.00;101594.25;4934697;28;20638;-86
2022/12/04 05:13:15;;;;;;;63.47;46.90;;;;;;;-0.36;100.00;101602.25;4953292;28;20043;-87
2022/12/04 05:15:41;;;;;;;63.83;47.70;;;;;;;-0.46;100.00;101579.97;4952408;28;20038;-87
2022/12/04 05:18:07;;;;;;;62.43;47.43;;;;;;;-0.37;100.00;101593.44;4952635;28;20317;-88
2022/12/04 05:20:33;;;;;;;64.30;46.80;;;;;;;-0.49;100.00;101573.09;4953012;28;20054;-89
2022/12/04 05:22:58;;;;;;;64.03;46.67;;;;;;;-0.48;100.00;101573.94;4952771;28;20356;-84
2022/12/04 05:25:24;;;;;;;62.73;46.47;;;;;;;-0.43;100.00;101580.59;4952140;28;20126;-87
2022/12/04 05:27:49;;;;;;;64.17;46.60;;;;;;;-0.33;100.00;101599.34;4952447;28;20050;-87
2022/12/04 05:30:15;;;;;;;64.07;46.00;;;;;;;-0.44;100.00;101586.03;4952373;28;20221;-87
2022/12/04 05:32:41;;;;;;;65.53;46.67;;;;;;;-0.28;100.00;101609.63;4952096;28;20057;-86
2022/12/04 05:35:07;;;;;;;62.30;46.73;;;;;;;-0.40;100.00;101582.16;4948383;28;20302;-88
2022/12/04 05:37:36;;;;;;;65.63;46.73;;;;;;;-0.40;100.00;101587.47;4950837;28;20129;-88
2022/12/04 05:40:02;;;;;;;63.30;47.03;;;;;;;-0.39;100.00;101578.53;4952191;28;20043;-88
2022/12/04 05:42:27;;;;;;;67.80;48.20;;;;;;;-0.45;100.00;101569.22;4951771;28;20295;-88
2022/12/04 05:44:52;;;;;;;60.63;45.43;;;;;;;-0.42;100.00;101568.09;4959167;28;20742;-87
2022/12/04 05:47:18;;;;;;;65.83;47.13;;;;;;;-0.31;100.00;101589.41;4952445;28;20047;-88
2022/12/04 05:49:43;;;;;;;61.17;45.97;;;;;;;-0.40;100.00;101583.00;4952561;28;20118;-87
2022/12/04 05:52:09;;;;;;;63.87;45.97;;;;;;;-0.38;100.00;101580.22;4941188;28;20187;-86
2022/12/04 05:54:35;;;;;;;64.70;46.73;;;;;;;-0.44;100.00;101567.41;4952326;28;20039;-89
2022/12/04 05:57:00;;;;;;;65.10;47.43;;;;;;;-0.37;100.00;101572.13;4952182;28;20128;-88
2022/12/04 05:59:26;;;;;;;63.83;47.83;;;;;;;-0.37;100.00;101577.44;4951531;28;20039;-88
2022/12/04 06:01:51;;;;;;;63.67;46.57;;;;;;;-0.47;100.00;101557.00;4952234;28;20163;-87
2022/12/04 06:04:17;;;;;;;63.93;46.17;;;;;;;-0.40;100.00;101564.34;4940518;28;20043;-87
2022/12/04 06:06:42;;;;;;;62.17;46.83;;;;;;;-0.48;100.00;101553.47;4939129;28;20034;-87
2022/12/04 06:09:08;;;;;;;66.57;48.50;;;;;;;-0.40;100.00;101564.34;4952270;28;20039;-86
2022/12/04 06:11:36;;;;;;;63.67;47.03;;;;;;;-0.37;100.00;101555.28;4949743;28;20461;-86
2022/12/04 06:14:04;;;;;;;68.30;48.23;;;;;;;-0.47;100.00;101549.00;4947720;28;20031;-90
2022/12/04 06:16:33;;;;;;;63.30;47.77;;;;;;;-0.49;100.00;101541.16;4956440;28;20402;-88
2022/12/04 06:19:02;;;;;;;65.83;47.17;;;;;;;-0.39;100.00;101565.22;4951696;28;20310;-87
2022/12/04 06:21:30;;;;;;;63.33;46.70;;;;;;;-0.36;100.00;101572.97;4951901;28;20610;-87
2022/12/04 06:23:56;;;;;;;61.43;46.57;;;;;;;-0.45;100.00;101557.72;4947900;28;20279;-86
2022/12/04 06:26:22;;;;;;;66.77;47.90;;;;;;;-0.38;100.00;101567.75;4951904;28;20301;-87
2022/12/04 06:28:48;;;;;;;62.77;45.87;;;;;;;-0.48;100.00;101555.28;4951098;28;20770;-87
2022/12/04 06:31:15;;;;;;;65.17;47.37;;;;;;;-0.35;100.00;101572.00;4940488;28;20329;-86
2022/12/04 06:33:41;;;;;;;62.27;46.67;;;;;;;-0.46;100.00;101556.00;4933993;28;20379;-86
2022/12/04 06:36:10;;;;;;;64.30;46.37;;;;;;;-0.45;100.00;101563.03;4937730;28;20309;-89
2022/12/04 06:38:37;;;;;;;61.70;46.17;;;;;;;-0.33;100.00;101578.03;4950897;28;20396;-88
2022/12/04 06:41:07;;;;;;;62.00;46.13;;;;;;;-0.28;100.00;101588.34;4951618;28;20925;-89
2022/12/04 06:43:33;;;;;;;60.53;46.07;;;;;;;-0.46;100.00;101559.53;4949572;28;21649;-87
2022/12/04 06:46:04;;;;;;;61.30;45.70;;;;;;;-0.41;100.00;101570.69;4945616;28;20315;-89
2022/12/04 06:48:30;;;;;;;59.00;44.17;;;;;;;-0.40;100.00;101568.84;4932278;29;20028;-84
2022/12/04 06:51:05;;;;;;;61.83;45.03;;;;;;;-0.32;100.00;101573.56;4917147;29;20322;-88
2022/12/04 06:53:31;;;;;;;58.10;44.97;;;;;;;-0.36;100.00;101578.28;4920615;29;20639;-87
2022/12/04 06:55:59;;;;;;;59.60;45.90;;;;;;;-0.33;100.00;101587.84;4920225;29;20862;-85
2022/12/04 06:58:25;;;;;;;60.23;46.07;;;;;;;-0.41;100.00;101572.47;4933846;29;20398;-88
2022/12/04 07:00:51;;;;;;;59.77;44.57;;;;;;;-0.37;100.00;101579.25;4936353;29;20690;-86
2022/12/04 07:03:16;;;;;;;59.50;44.70;;;;;;;-0.31;100.00;101581.44;4935130;29;20306;-85
2022/12/04 07:05:42;;;;;;;59.43;44.37;;;;;;;-0.26;100.00;101595.22;4919624;29;20437;-86
2022/12/04 07:08:07;;;;;;;56.90;44.67;;;;;;;-0.35;100.00;101579.97;4933193;29;20105;-86
2022/12/04 07:10:35;;;;;;;56.93;43.40;;;;;;;-0.34;100.00;101584.31;4933665;29;20050;-87
2022/12/04 07:13:01;;;;;;;54.87;42.40;;;;;;;-0.35;100.00;101577.31;4933234;29;20042;-88
2022/12/04 07:15:27;;;;;;;53.07;42.90;;;;;;;-0.24;100.00;101619.06;4934753;29;20322;-86
2022/12/04 07:17:52;;;;;;;53.47;41.33;;;;;;;-0.40;100.00;101590.16;4934042;29;20301;-86
2022/12/04 07:20:17;;;;;;;56.20;42.83;;;;;;;-0.20;100.00;101615.19;4935740;29;20768;-87
2022/12/04 07:22:43;;;;;;;55.87;42.63;;;;;;;-0.31;100.00;101605.41;4933977;29;20359;-87
2022/12/04 07:25:08;;;;;;;54.23;41.83;;;;;;;-0.21;100.00;101622.31;4935783;29;20086;-87
2022/12/04 07:27:34;;;;;;;54.57;42.27;;;;;;;-0.41;100.00;101602.63;4934787;29;20031;-88
2022/12/04 07:29:59;;;;;;;53.23;40.70;;;;;;;-0.36;100.00;101604.91;4934541;29;21443;-87
2022/12/04 07:32:24;;;;;;;55.80;41.83;;;;;;;-0.37;100.00;101601.41;4933320;29;20376;-87
2022/12/04 07:34:50;;;;;;;54.00;41.77;;;;;;;-0.21;100.00;101622.31;4919804;29;20035;-85
2022/12/04 07:37:18;;;;;;;53.27;41.67;;;;;;;-0.25;100.00;101612.88;4935733;29;20361;-86
2022/12/04 07:39:44;;;;;;;52.10;40.80;;;;;;;-0.29;100.00;101616.75;4932639;29;20114;-87
2022/12/04 07:42:09;;;;;;;52.03;41.00;;;;;;;-0.41;100.00;101596.44;4919831;29;20309;-88
2022/12/04 07:44:36;;;;;;;51.70;40.10;;;;;;;-0.30;100.00;101609.75;4919242;29;20035;-88
2022/12/04 07:47:01;;;;;;;51.57;39.33;;;;;;;-0.25;100.00;101612.88;4945292;28;20134;-88
2022/12/04 07:49:27;;;;;;;50.97;38.67;;;;;;;-0.28;100.00;101602.47;4954215;28;20630;-87
2022/12/04 07:51:52;;;;;;;49.37;38.67;;;;;;;-0.33;100.00;101594.00;4954369;28;20109;-88
2022/12/04 07:54:17;;;;;;;49.33;38.37;;;;;;;-0.26;100.00;101621.88;4954790;28;20054;-87
2022/12/04 07:56:43;;;;;;;49.87;38.97;;;;;;;-0.31;100.00;101608.06;4942256;28;20046;-88
2022/12/04 07:59:08;;;;;;;49.97;38.90;;;;;;;-0.13;100.00;101632.38;4951260;28;20062;-86
2022/12/04 08:01:33;;;;;;;47.83;36.73;;;;;;;-0.19;100.00;101625.72;4956482;28;20058;-86
2022/12/04 08:04:00;;;;;;;48.73;38.23;;;;;;;-0.27;100.00;101611.31;4956369;28;20034;-86
2022/12/04 08:06:27;;;;;;;49.10;38.10;;;;;;;-0.25;100.00;101614.72;4942809;28;20612;-87
2022/12/04 08:08:52;;;;;;;48.40;37.40;;;;;;;-0.23;100.00;101624.28;4957293;28;20338;-87
2022/12/04 08:11:22;;;;;;;48.27;37.70;;;;;;;-0.22;100.00;101622.44;4942651;28;20384;-87
2022/12/04 08:13:52;;;;;;;48.77;37.87;;;;;;;-0.21;100.00;101622.31;4937794;28;20038;-88
2022/12/04 08:16:17;;;;;;;45.60;36.23;;;;;;;-0.23;100.00;101623.41;4941574;28;20358;-89
2022/12/04 08:18:47;;;;;;;47.20;36.80;;;;;;;-0.23;100.00;101613.63;4958739;28;20671;-87
2022/12/04 08:21:14;;;;;;;44.90;35.00;;;;;;;-0.19;100.00;101628.38;4952601;28;20031;-89
2022/12/04 08:23:42;;;;;;;46.40;36.43;;;;;;;-0.22;100.00;101619.78;4941529;28;20282;-87
2022/12/04 08:26:08;;;;;;;47.47;37.73;;;;;;;-0.12;100.00;101633.22;4953591;28;20290;-87
2022/12/04 08:28:34;;;;;;;48.23;36.47;;;;;;;-0.12;100.00;101636.75;4953745;28;20628;-88
2022/12/04 08:31:08;;;;;;;46.67;35.30;;;;;;;-0.10;100.00;101642.78;4953512;28;20316;-86
2022/12/04 08:33:34;;;;;;;47.03;36.55;;;;;;;-0.13;100.00;101631.53;4952938;28;20126;-87
2022/12/04 08:36:00;;;;;;;46.93;35.73;;;;;;;-0.10;100.00;101637.44;4955862;28;20149;-86
2022/12/04 08:38:25;;;;;;;44.90;35.77;;;;;;;-0.14;100.00;101629.84;4941980;28;20047;-87
2022/12/04 08:40:50;;;;;;;47.67;36.43;;;;;;;-0.15;100.00;101623.69;4942319;28;20031;-87
2022/12/04 08:43:16;;;;;;;45.93;35.60;;;;;;;-0.08;100.00;101640.00;4949595;28;20042;-87
2022/12/04 08:45:41;;;;;;;45.70;35.87;;;;;;;-0.12;100.00;101626.09;4952133;28;20047;-87
2022/12/04 08:48:06;;;;;;;47.10;36.60;;;;;;;0.06;100.00;101645.06;4951013;28;20121;-87
2022/12/04 08:50:32;;;;;;;43.80;34.93;;;;;;;0.08;100.00;101644.94;4952085;28;20066;-86
2022/12/04 08:52:57;;;;;;;45.17;34.60;;;;;;;-0.02;100.00;101635.03;4951730;28;20589;-87
2022/12/04 08:55:23;;;;;;;43.20;34.00;;;;;;;0.11;100.00;101634.03;4952979;28;20403;-88
2022/12/04 08:57:51;;;;;;;43.70;33.83;;;;;;;0.11;100.00;101626.91;4952863;28;20370;-86
2022/12/04 09:00:17;;;;;;;42.43;33.40;;;;;;;0.13;100.00;101643.59;4948753;28;20122;-87
2022/12/04 09:02:42;;;;;;;43.00;34.33;;;;;;;0.20;100.00;101641.28;4952578;28;20297;-86
2022/12/04 09:05:08;;;;;;;43.37;33.67;;;;;;;0.20;100.00;101633.28;4951876;28;20337;-86
2022/12/04 09:07:33;;;;;;;42.77;34.07;;;;;;;0.27;100.00;101642.50;4951953;28;21385;-88
2022/12/04 09:09:58;;;;;;;42.70;33.87;;;;;;;0.30;100.00;101633.38;4952694;28;20043;-86
2022/12/04 09:12:24;;;;;;;42.00;33.27;;;;;;;0.27;100.00;101641.63;4952657;28;20077;-87
2022/12/04 09:14:49;;;;;;;42.20;32.63;;;;;;;0.24;100.00;101628.56;4951977;28;20546;-87
2022/12/04 09:17:14;;;;;;;42.33;32.90;;;;;;;0.25;100.00;101633.78;4952178;28;20154;-87
2022/12/04 09:19:40;;;;;;;39.17;31.37;;;;;;;0.27;100.00;101644.31;4940201;28;20042;-89
2022/12/04 09:22:05;;;;;;;40.77;31.90;;;;;;;0.29;100.00;101637.03;4956628;28;20038;-86
2022/12/04 09:24:31;;;;;;;38.37;30.20;;;;;;;0.27;100.00;101644.31;4941796;29;20050;-86
2022/12/04 09:26:56;;;;;;;40.37;30.67;;;;;;;0.36;100.00;101651.56;4952207;28;20181;-87
2022/12/04 09:29:22;;;;;;;38.53;29.83;;;;;;;0.36;100.00;101642.72;4942954;28;20036;-88
2022/12/04 09:31:47;;;;;;;37.40;28.80;;;;;;;0.34;100.00;101642.84;4952575;28;20035;-87
2022/12/04 09:34:12;;;;;;;37.90;28.80;;;;;;;0.26;100.00;101631.94;4947921;28;20043;-88
2022/12/04 09:36:38;;;;;;;32.87;26.27;;;;;;;0.30;100.00;101665.38;4951016;28;20513;-87
2022/12/04 09:39:03;;;;;;;33.50;25.23;;;;;;;0.25;100.00;101646.25;4950804;28;20042;-88
2022/12/04 09:41:43;;;;;;;34.03;26.70;;;;;;;0.24;100.00;101649.88;4940663;28;20027;-86
2022/12/04 09:44:37;;;;;;;33.03;25.60;;;;;;;0.29;100.00;101659.19;4936731;28;20038;-87
2022/12/04 09:47:22;;;;;;;34.67;25.80;;;;;;;0.21;100.00;101647.47;4957694;28;20306;-86
2022/12/04 09:49:50;;;;;;;34.43;26.83;;;;;;;0.30;100.00;101660.03;4951750;28;20325;-86
2022/12/04 09:52:29;;;;;;;34.90;26.27;;;;;;;0.27;100.00;101660.28;4939306;28;20318;-87
2022/12/04 09:54:57;;;;;;;35.53;27.17;;;;;;;0.27;100.00;101655.84;4952124;28;20023;-86
2022/12/04 09:57:47;;;;;;;36.80;28.27;;;;;;;0.24;100.00;101653.41;4951151;28;20298;-87
2022/12/04 10:00:16;;;;;;;36.83;28.67;;;;;;;0.29;100.00;101647.69;4936361;28;20699;-85
2022/12/04 10:02:47;;;;;;;34.63;26.70;;;;;;;0.26;100.00;101653.25;4939621;28;20349;-87
2022/12/04 10:05:44;;;;;;;34.70;27.27;;;;;;;0.30;100.00;101649.38;4951639;28;20388;-88
2022/12/04 10:08:35;;;;;;;34.83;26.47;;;;;;;0.22;100.00;101644.69;4914887;28;20397;-85
2022/12/04 10:11:03;;;;;;;36.20;27.73;;;;;;;0.22;100.00;101643.81;4931791;28;20326;-87
2022/12/04 10:13:56;;;;;;;33.73;26.40;;;;;;;0.31;100.00;101656.41;4939709;28;20849;-86
2022/12/04 10:16:40;;;;;;;35.73;27.20;;;;;;;0.30;100.00;101657.38;4951451;28;20384;-86
2022/12/04 10:19:21;;;;;;;35.30;27.40;;;;;;;0.27;100.00;101653.16;4951119;28;20336;-87
2022/12/04 10:22:06;;;;;;;35.30;27.40;;;;;;;0.30;100.00;101654.72;4946799;28;20810;-89
2022/12/04 10:24:39;;;;;;;36.00;28.23;;;;;;;0.32;100.00;101648.28;4932274;28;20308;-85
2022/12/04 10:27:13;;;;;;;35.40;27.13;;;;;;;0.26;100.00;101647.94;4946797;28;20617;-86
2022/12/04 10:29:42;;;;;;;33.90;27.05;;;;;;;0.23;100.00;101648.19;4947022;28;20316;-88
2022/12/04 10:32:21;;;;;;;35.90;27.53;;;;;;;0.27;100.00;101634.50;4943278;28;20047;-87
2022/12/04 10:34:49;;;;;;;34.80;27.13;;;;;;;0.23;100.00;101646.38;4946419;28;20341;-85
2022/12/04 10:37:14;;;;;;;35.57;27.57;;;;;;;0.29;100.00;101651.22;4947206;28;20137;-87
2022/12/04 10:40:04;;;;;;;35.10;27.53;;;;;;;0.33;100.00;101643.81;4944593;28;20309;-87
2022/12/04 10:42:56;;;;;;;33.87;26.50;;;;;;;0.24;100.00;101636.56;4902669;28;20045;-88
2022/12/04 10:45:22;;;;;;;34.20;26.97;;;;;;;0.27;100.00;101657.63;4947036;28;20382;-87
2022/12/04 10:47:49;;;;;;;33.27;26.57;;;;;;;0.27;100.00;101654.97;4936762;28;20389;-88
2022/12/04 10:50:17;;;;;;;33.77;26.40;;;;;;;0.22;100.00;101646.50;4930086;28;20046;-87
2022/12/04 10:52:43;;;;;;;33.87;26.43;;;;;;;0.27;100.00;101649.63;4946552;28;20304;-86
2022/12/04 10:55:09;;;;;;;33.33;26.80;;;;;;;0.25;100.00;101651.59;4936274;28;20294;-86
2022/12/04 10:57:38;;;;;;;34.13;26.43;;;;;;;0.19;100.00;101652.94;4946307;28;20298;-87
2022/12/04 11:00:26;;;;;;;33.87;26.80;;;;;;;0.26;100.00;101647.94;4946906;28;20043;-86
2022/12/04 11:03:01;;;;;;;36.00;27.67;;;;;;;0.16;100.00;101645.16;4947019;28;20290;-86
2022/12/04 11:05:36;;;;;;;36.20;28.75;;;;;;;0.23;100.00;101645.53;4947400;28;20301;-85
2022/12/04 11:08:05;;;;;;;34.47;27.20;;;;;;;0.24;100.00;101633.91;4946683;28;20050;-86
2022/12/04 11:10:41;;;;;;;35.40;27.70;;;;;;;0.14;100.00;101628.47;4929555;28;20420;-86
2022/12/04 11:13:14;;;;;;;34.50;27.03;;;;;;;0.17;100.00;101634.38;4946906;28;20751;-88
2022/12/04 11:15:47;;;;;;;35.10;27.90;;;;;;;0.15;100.00;101628.34;4946961;28;20857;-86
2022/12/04 11:18:17;;;;;;;33.63;27.17;;;;;;;0.16;100.00;101624.72;4940033;28;20690;-87
2022/12/04 11:20:57;;;;;;;34.17;27.23;;;;;;;0.11;100.00;101610.91;4947217;28;20303;-89
2022/12/04 11:23:23;;;;;;;32.07;26.17;;;;;;;0.16;100.00;101610.53;4952356;28;20302;-86
2022/12/04 11:25:52;;;;;;;34.50;27.37;;;;;;;0.21;100.00;101612.84;4953620;28;20802;-88
2022/12/04 11:28:23;;;;;;;31.97;26.10;;;;;;;0.20;100.00;101611.97;4951181;28;20374;-87
2022/12/04 11:30:54;;;;;;;34.17;27.40;;;;;;;0.21;100.00;101603.00;4951822;28;20352;-87